Main page
METAR-TAF:

METAR-TAF

Airports :

Singapore, Singapore

Singapore Changi Airport

latitude: 01-22N, longitude: 103-59E, elevation: 5 m

Current weather observation

The report was made 26 minutes ago, at 13:30 UTC
Wind 3 kt from the North/Northeast
Temperature 26°C
Humidity 89%
Pressure 1011 hPa
Visibility 10 km or more
Few clouds at a height of 1800 ft
Scattered clouds at a height of 16000 ft

METAR: WSSS 281330Z 02003KT 9999 FEW018 SCT160 26/24 Q1011 NOSIG

Time: 21:56 (13:56 UTC)

Forecast

The report was made 2 hours and 56 minutes ago, at 11:00 UTC
Forecast valid from 28 at 12 UTC to 29 at 18 UTC
Wind 7 kt from variable directions
Visibility 10 km or more
Few clouds at a height of 1800 ft, Cumulonimbus.
Scattered clouds at a height of 2000 ft
Temporary
from 29 at 04 UTC to 29 at 08 UTC
Visibility: 3000 m
Few clouds at a height of 1200 ft, Cumulonimbus.
Broken clouds at a height of 1500 ft
thunderstorm, rain

TAF: WSSS 281100Z 2812/2918 VRB07KT 9999 FEW018CB SCT020 TEMPO 2904/2908 3000 TSRA FEW012CB BKN015

Weather observations and forecasts of more than 4000 airports (METAR and TAF reports).

The available stations are represented by yellow and red dots on the map.

Hover mouse over dot to see the name of the station.

Then click to see weather observations and forecasts.

To change the map : click on the green buttons with a black cross to zoom in, on the green button with a dash to zoom out, or on the green arrows for adjacent maps.


METAR-TAF: